Home > Products > Valid Products > TAF

000
FTUS44 KAMA 011700
TAFAMA
TAF
KAMA 011726Z 0118/0218 23013G20KT P6SM SCT300
     FM012200 20011KT P6SM SCT080 SCT300
     FM020200 18011KT P6SM SCT100 BKN250
     FM020900 23009KT P6SM SCT100 BKN250
     FM021400 31010KT P6SM SCT100 OVC200=



000
FTUS44 KAMA 011700
TAFDHT
TAF
KDHT 011726Z 0118/0218 25013G18KT P6SM SCT300
     FM012000 14010KT P6SM SCT090 BKN300
     FM020500 01008KT P6SM BKN100 OVC250
     FM021400 34010KT P6SM SCT100 OVC200=



000
FTUS44 KAMA 011700
TAFGUY
TAF
KGUY 011726Z 0118/0218 36010KT P6SM FEW080 BKN300
     FM020300 05006KT P6SM BKN100 OVC200
     FM021000 35007KT P6SM BKN100 OVC200=



000
FTUS44 KAMA 011700
TAFGUY
TAF
KGUY 011726Z 0118/0218 36010KT P6SM FEW080 BKN300
     FM020300 05006KT P6SM BKN100 OVC200
     FM021000 35007KT P6SM BKN100 OVC200=



000
FTUS44 KAMA 011700
TAFAMA
TAF
KAMA 011726Z 0118/0218 23013G20KT P6SM SCT300
     FM012200 20011KT P6SM SCT080 SCT300
     FM020200 18011KT P6SM SCT100 BKN250
     FM020900 23009KT P6SM SCT100 BKN250
     FM021400 31010KT P6SM SCT100 OVC200=



000
FTUS44 KAMA 011700
TAFDHT
TAF
KDHT 011726Z 0118/0218 25013G18KT P6SM SCT300
     FM012000 14010KT P6SM SCT090 BKN300
     FM020500 01008KT P6SM BKN100 OVC250
     FM021400 34010KT P6SM SCT100 OVC200=



000
FTUS44 KAMA 011100
TAFDHT
TAF
KDHT 011129Z 0112/0212 22012KT P6SM SCT300
     FM011600 25013KT P6SM SCT300
     FM012000 14010KT P6SM SCT090 BKN300
     FM020500 01008KT P6SM BKN100 OVC300=



000
FTUS44 KAMA 011100
TAFAMA
TAF
KAMA 011129Z 0112/0212 23015G24KT P6SM SCT300
     FM012000 20011KT P6SM SCT080 SCT300
     FM020200 18011KT P6SM SCT100 BKN300
     FM020900 23009KT P6SM SCT100 BKN300=



000
FTUS44 KAMA 011100
TAFGUY
TAF
KGUY 011129Z 0112/0212 22014KT P6SM SCT300
     FM011500 27015G23KT P6SM SCT300
     FM011800 32012KT P6SM SCT080 SCT300
     FM020300 VRB06KT P6SM BKN100 OVC300=



000
FTUS44 KAMA 011100
TAFAMA
TAF
KAMA 011129Z 0112/0212 23015G24KT P6SM SCT300
     FM012000 20011KT P6SM SCT080 SCT300
     FM020200 18011KT P6SM SCT100 BKN300
     FM020900 23009KT P6SM SCT100 BKN300=



000
FTUS44 KAMA 011100
TAFDHT
TAF
KDHT 011129Z 0112/0212 22012KT P6SM SCT300
     FM011600 25013KT P6SM SCT300
     FM012000 14010KT P6SM SCT090 BKN300
     FM020500 01008KT P6SM BKN100 OVC300=



000
FTUS44 KAMA 011100
TAFGUY
TAF
KGUY 011129Z 0112/0212 22014KT P6SM SCT300
     FM011500 27015G23KT P6SM SCT300
     FM011800 32012KT P6SM SCT080 SCT300
     FM020300 VRB06KT P6SM BKN100 OVC300=



000
FTUS44 KAMA 010500
TAFGUY
TAF
KGUY 010520Z 0106/0206 20014KT P6SM SCT250
     FM011500 21015G24KT P6SM SCT080 BKN250
     FM020200 09013KT P6SM BKN050=



000
FTUS44 KAMA 010500
TAFDHT
TAF
KDHT 010520Z 0106/0206 20010KT P6SM SCT250
     FM011500 21014G23KT P6SM SCT080 BKN250
     FM020000 16012KT P6SM BKN050=



000
FTUS44 KAMA 010500
TAFAMA
TAF
KAMA 010520Z 0106/0206 20015KT P6SM SCT250
     FM011400 21016G24KT P6SM SCT250
     FM020200 17015KT P6SM BKN250=



000
FTUS44 KAMA 010500
TAFDHT
TAF
KDHT 010520Z 0106/0206 20010KT P6SM SCT250
     FM011500 21014G23KT P6SM SCT080 BKN250
     FM020000 16012KT P6SM BKN050=



000
FTUS44 KAMA 010500
TAFGUY
TAF
KGUY 010520Z 0106/0206 20014KT P6SM SCT250
     FM011500 21015G24KT P6SM SCT080 BKN250
     FM020200 09013KT P6SM BKN050=



000
FTUS44 KAMA 010500
TAFAMA
TAF
KAMA 010520Z 0106/0206 20015KT P6SM SCT250
     FM011400 21016G24KT P6SM SCT250
     FM020200 17015KT P6SM BKN250=



000
FTUS44 KAMA 302300
TAFAMA
TAF
KAMA 302320Z 0100/0124 18010KT P6SM FEW300
     FM010900 21015KT P6SM FEW250
     FM011400 22015G25KT P6SM SCT100=



000
FTUS44 KAMA 302300
TAFGUY
TAF
KGUY 302320Z 0100/0124 18011KT P6SM FEW300
     FM010900 20013KT P6SM SCT150
     FM011300 23013G23KT P6SM SCT150
     FM011800 01012G22KT P6SM SCT150=



000
FTUS44 KAMA 302300
TAFDHT
TAF
KDHT 302320Z 0100/0124 19009KT P6SM FEW300
     FM010900 21014KT P6SM SCT150
     FM011500 25014G24KT P6SM SCT100
     FM012000 16011KT P6SM SCT100=



000
FTUS44 KAMA 301800 AAA
TAFGUY
TAF AMD
KGUY 301740Z 3018/0118 19013KT P6SM FEW080
     FM010200 19011KT P6SM SCT250
     FM010900 22014KT P6SM SCT150=



000
FTUS44 KAMA 301800 AAA
TAFAMA
TAF AMD
KAMA 301740Z 3018/0118 20013KT P6SM FEW080
     FM010200 17010KT P6SM SCT250
     FM010900 22015KT P6SM SCT150=



000
FTUS44 KAMA 301800 AAA
TAFDHT
TAF AMD
KDHT 301740Z 3018/0118 20013KT P6SM FEW080
     FM010200 18010KT P6SM SCT250
     FM010900 22015KT P6SM SCT150=



000
FTUS44 KAMA 301100
TAFDHT
TAF
KDHT 301120Z 3012/0112 24007KT P6SM SKC
     FM301700 19011KT P6SM SCT080
     FM010400 21012KT P6SM SCT250=



000
FTUS44 KAMA 301100
TAFDHT
TAF
KDHT 301120Z 3012/0112 24007KT P6SM SKC
     FM301700 19011KT P6SM SCT080
     FM010400 21012KT P6SM SCT250=



000
FTUS44 KAMA 301100
TAFAMA
TAF
KAMA 301120Z 3012/0112 20010KT P6SM SKC
     FM301900 19014KT P6SM SCT080
     FM010300 20014KT P6SM SCT250=



000
FTUS44 KAMA 301100
TAFAMA
TAF
KAMA 301120Z 3012/0112 20010KT P6SM SKC
     FM301900 19014KT P6SM SCT080
     FM010300 20014KT P6SM SCT250=



000
FTUS44 KAMA 301100
TAFGUY
TAF
KGUY 301120Z 3012/0112 22008KT P6SM SKC
     FM301700 19013KT P6SM SCT080
     FM010400 22013KT P6SM SCT250=



000
FTUS44 KAMA 301100
TAFGUY
TAF
KGUY 301120Z 3012/0112 22008KT P6SM SKC
     FM301700 19013KT P6SM SCT080
     FM010400 22013KT P6SM SCT250=



000
FTUS44 KAMA 300500
TAFGUY
TAF
KGUY 300520Z 3006/0106 22008KT P6SM SKC
     FM301600 20011KT P6SM SKC
     FM010200 17008KT P6SM FEW250=



000
FTUS44 KAMA 300500
TAFAMA
TAF
KAMA 300520Z 3006/0106 15008KT P6SM SCT250
     FM301100 19010KT P6SM SKC
     FM301800 20012KT P6SM SKC
     FM010200 17010KT P6SM FEW250=



000
FTUS44 KAMA 300500
TAFAMA
TAF
KAMA 300520Z 3006/0106 15008KT P6SM SCT250
     FM301100 19010KT P6SM SKC
     FM301800 20012KT P6SM SKC
     FM010200 17010KT P6SM FEW250=



000
FTUS44 KAMA 300500
TAFDHT
TAF
KDHT 300520Z 3006/0106 VRB03KT P6SM SKC
     FM301500 20011KT P6SM SKC
     FM010200 18010KT P6SM FEW250=



000
FTUS44 KAMA 300500
TAFDHT
TAF
KDHT 300520Z 3006/0106 VRB03KT P6SM SKC
     FM301500 20011KT P6SM SKC
     FM010200 18010KT P6SM FEW250=



000
FTUS44 KAMA 292300
TAFGUY
TAF
KGUY 292320Z 3000/3024 01006KT P6SM SCT100
     FM301500 21010KT P6SM FEW080 SCT200=



000
FTUS44 KAMA 292300
TAFDHT
TAF
KDHT 292320Z 3000/3024 09008KT P6SM BKN070
     FM301600 20010G19KT P6SM FEW090 SCT200=



000
FTUS44 KAMA 292300
TAFAMA
TAF
KAMA 292320Z 3000/3024 06012KT P6SM BKN080
     FM300400 12008KT P6SM FEW100
     FM301400 22010KT P6SM FEW090=



000
FTUS44 KAMA 291900 AAB
TAFDHT
TAF AMD
KDHT 291949Z 2920/3018 07009KT P6SM VCTS BKN100CB
      TEMPO 2920/2922 5SM TSRA SCT012CB
     FM300300 15008KT P6SM FEW100 SCT250
     FM301500 23010KT P6SM SCT200=



000
FTUS44 KAMA 291900 AAA
TAFDHT
TAF AMD
KDHT 291904Z 2919/3018 07009KT P6SM VCTS BKN100CB
     FM300300 15008KT P6SM FEW100 SCT250
     FM301500 23010KT P6SM SCT200=



000
FTUS44 KAMA 291700
TAFGUY
TAF
KGUY 291720Z 2918/3018 08009KT P6SM VCSH SCT100 BKN250
     FM300400 17006KT P6SM SCT100 BKN250
     FM301500 22010KT P6SM SCT200=



000
FTUS44 KAMA 291700
TAFAMA
TAF
KAMA 291720Z 2918/3018 06010KT P6SM VCSH BKN090
     FM300300 14008KT P6SM FEW100 SCT250
     FM301500 23010KT P6SM FEW100=



000
FTUS44 KAMA 291700
TAFDHT
TAF
KDHT 291720Z 2918/3018 07009KT P6SM VCSH BKN100
     FM300300 15008KT P6SM FEW100 SCT250
     FM301500 23010KT P6SM SCT200=



000
FTUS44 KAMA 291700
TAFAMA
TAF
KAMA 291720Z 2918/3018 06010KT P6SM VCSH BKN090
     FM300300 14008KT P6SM FEW100 SCT250
     FM301500 23010KT P6SM FEW100=



000
FTUS44 KAMA 291700
TAFDHT
TAF
KDHT 291720Z 2918/3018 07009KT P6SM VCSH BKN100
     FM300300 15008KT P6SM FEW100 SCT250
     FM301500 23010KT P6SM SCT200=



000
FTUS44 KAMA 291700
TAFGUY
TAF
KGUY 291720Z 2918/3018 08009KT P6SM VCSH SCT100 BKN250
     FM300400 17006KT P6SM SCT100 BKN250
     FM301500 22010KT P6SM SCT200=



000
FTUS44 KAMA 291100
TAFGUY
TAF
KGUY 291127Z 2912/3012 04008KT P6SM FEW100 BKN200
     FM291800 08009KT P6SM SCT100 BKN250
     FM300400 17006KT P6SM SCT100 BKN250=



000
FTUS44 KAMA 291100
TAFDHT
TAF
KDHT 291127Z 2912/3012 03009KT P6SM SCT100 BKN200
     FM291900 08010KT P6SM BKN100
     FM300300 15008KT P6SM FEW100 SCT250=



000
FTUS44 KAMA 291100
TAFAMA
TAF
KAMA 291127Z 2912/3012 32010KT P6SM BKN250
     FM291800 07010KT P6SM BKN090
     FM300300 14008KT P6SM FEW100 SCT250=



000
FTUS44 KAMA 290500
TAFDHT
TAF
KDHT 290520Z 2906/3006 06008KT P6SM BKN250
     FM291400 06010KT P6SM BKN080
     FM300100 08008KT P6SM SCT080=



000
FTUS44 KAMA 290500
TAFAMA
TAF
KAMA 290520Z 2906/3006 21008KT P6SM BKN250
     FM291500 03013KT P6SM BKN100
     FM300100 08008KT P6SM SCT100=



000
FTUS44 KAMA 290500
TAFGUY
TAF
KGUY 290520Z 2906/3006 04008KT P6SM BKN250
     FM291400 05010KT P6SM BKN080
     FM300100 09008KT P6SM SCT080=



000
FTUS44 KAMA 290500
TAFGUY
TAF
KGUY 290520Z 2906/3006 04008KT P6SM BKN250
     FM291400 05010KT P6SM BKN080
     FM300100 09008KT P6SM SCT080=



000
FTUS44 KAMA 290500
TAFDHT
TAF
KDHT 290520Z 2906/3006 06008KT P6SM BKN250
     FM291400 06010KT P6SM BKN080
     FM300100 08008KT P6SM SCT080=



000
FTUS44 KAMA 290500
TAFAMA
TAF
KAMA 290520Z 2906/3006 21008KT P6SM BKN250
     FM291500 03013KT P6SM BKN100
     FM300100 08008KT P6SM SCT100=



000
FTUS44 KAMA 282300
TAFDHT
TAF
KDHT 282320Z 2900/2924 02010KT P6SM SCT100
     FM291500 07010G19KT P6SM BKN100=



000
FTUS44 KAMA 282300
TAFGUY
TAF
KGUY 282320Z 2900/2924 VRB06KT P6SM FEW090
     FM291300 03009KT P6SM SCT100 SCT200=



000
FTUS44 KAMA 282300
TAFGUY
TAF
KGUY 282320Z 2900/2924 VRB06KT P6SM FEW090
     FM291300 03009KT P6SM SCT100 SCT200=



000
FTUS44 KAMA 282300
TAFAMA
TAF
KAMA 282320Z 2900/2924 VRB05KT P6SM SCT080
     FM290300 17008KT P6SM SCT080
     FM291400 21010KT P6SM SCT090 SCT250
     FM291700 12010KT P6SM OVC100=



000
FTUS44 KAMA 282300
TAFAMA
TAF
KAMA 282320Z 2900/2924 VRB05KT P6SM SCT080
     FM290300 17008KT P6SM SCT080
     FM291400 21010KT P6SM SCT090 SCT250
     FM291700 12010KT P6SM OVC100=



000
FTUS44 KAMA 282300
TAFDHT
TAF
KDHT 282320Z 2900/2924 02010KT P6SM SCT100
     FM291500 07010G19KT P6SM BKN100=



    US Dept of Commerce
    National Oceanic and Atmospheric Administration
    National Weather Service
    1325 East West Highway
    Silver Spring, MD 20910
    Page Author: NWS Internet Services Team
Disclaimer
Information Quality
Credits
Glossary
Privacy Policy
Freedom of Information Act (FOIA)
About Us
Career Opportunities